sensor_id;sensor_type;location;lat;lon;timestamp;temperature;humidity
21508;DHT22;10915;54.352;9.074;2023-04-23T00:00:13;12.80;99.90
21508;DHT22;10915;54.352;9.074;2023-04-23T00:02:42;12.80;99.90
21508;DHT22;10915;54.352;9.074;2023-04-23T00:05:09;12.80;99.90
21508;DHT22;10915;54.352;9.074;2023-04-23T00:07:35;12.70;99.90
21508;DHT22;10915;54.352;9.074;2023-04-23T00:10:01;12.70;99.90
21508;DHT22;10915;54.352;9.074;2023-04-23T00:12:30;12.60;99.90
21508;DHT22;10915;54.352;9.074;2023-04-23T00:15:00;12.60;99.90
21508;DHT22;10915;54.352;9.074;2023-04-23T00:17:26;12.60;99.90
21508;DHT22;10915;54.352;9.074;2023-04-23T00:19:51;12.50;99.90
21508;DHT22;10915;54.352;9.074;2023-04-23T00:22:17;12.50;99.90
21508;DHT22;10915;54.352;9.074;2023-04-23T00:24:44;12.40;99.90
21508;DHT22;10915;54.352;9.074;2023-04-23T00:27:10;12.40;99.90
21508;DHT22;10915;54.352;9.074;2023-04-23T00:29:36;12.30;99.90
21508;DHT22;10915;54.352;9.074;2023-04-23T00:32:01;12.30;99.90
21508;DHT22;10915;54.352;9.074;2023-04-23T00:34:27;12.20;99.90
21508;DHT22;10915;54.352;9.074;2023-04-23T00:36:53;12.20;99.90
21508;DHT22;10915;54.352;9.074;2023-04-23T00:39:19;12.10;99.90
21508;DHT22;10915;54.352;9.074;2023-04-23T00:41:45;12.10;99.90
21508;DHT22;10915;54.352;9.074;2023-04-23T00:44:11;12.10;99.90
21508;DHT22;10915;54.352;9.074;2023-04-23T00:46:37;12.00;99.90
21508;DHT22;10915;54.352;9.074;2023-04-23T00:49:03;12.00;99.90
21508;DHT22;10915;54.352;9.074;2023-04-23T00:51:29;11.90;99.90
21508;DHT22;10915;54.352;9.074;2023-04-23T00:53:56;11.90;99.90
21508;DHT22;10915;54.352;9.074;2023-04-23T00:56:23;11.80;99.90
21508;DHT22;10915;54.352;9.074;2023-04-23T00:58:50;11.80;99.90
21508;DHT22;10915;54.352;9.074;2023-04-23T01:01:17;11.70;99.90
21508;DHT22;10915;54.352;9.074;2023-04-23T01:03:47;11.70;99.90
21508;DHT22;10915;54.352;9.074;2023-04-23T01:06:13;11.70;99.90
21508;DHT22;10915;54.352;9.074;2023-04-23T01:08:41;11.60;99.90
21508;DHT22;10915;54.352;9.074;2023-04-23T01:11:08;11.60;99.90
21508;DHT22;10915;54.352;9.074;2023-04-23T01:13:34;11.50;99.90
21508;DHT22;10915;54.352;9.074;2023-04-23T01:16:00;11.50;99.90
21508;DHT22;10915;54.352;9.074;2023-04-23T01:18:26;11.50;99.90
21508;DHT22;10915;54.352;9.074;2023-04-23T01:20:52;11.50;99.90
21508;DHT22;10915;54.352;9.074;2023-04-23T01:23:18;11.50;99.90
21508;DHT22;10915;54.352;9.074;2023-04-23T01:25:44;11.50;99.90
21508;DHT22;10915;54.352;9.074;2023-04-23T01:28:10;11.40;99.90
21508;DHT22;10915;54.352;9.074;2023-04-23T01:30:36;11.40;99.90
21508;DHT22;10915;54.352;9.074;2023-04-23T01:33:03;11.40;99.90
21508;DHT22;10915;54.352;9.074;2023-04-23T01:35:30;11.40;99.90
21508;DHT22;10915;54.352;9.074;2023-04-23T01:37:57;11.40;99.90
21508;DHT22;10915;54.352;9.074;2023-04-23T01:40:23;11.40;99.90
21508;DHT22;10915;54.352;9.074;2023-04-23T01:42:49;11.40;99.90
21508;DHT22;10915;54.352;9.074;2023-04-23T01:45:15;11.40;99.90
21508;DHT22;10915;54.352;9.074;2023-04-23T01:47:45;11.30;99.90
21508;DHT22;10915;54.352;9.074;2023-04-23T01:50:11;11.30;99.90
21508;DHT22;10915;54.352;9.074;2023-04-23T01:52:37;11.30;99.90
21508;DHT22;10915;54.352;9.074;2023-04-23T01:55:03;11.30;99.90
21508;DHT22;10915;54.352;9.074;2023-04-23T01:57:29;11.30;99.90
21508;DHT22;10915;54.352;9.074;2023-04-23T02:00:09;11.30;99.90
21508;DHT22;10915;54.352;9.074;2023-04-23T02:02:37;11.30;99.90
21508;DHT22;10915;54.352;9.074;2023-04-23T02:05:03;11.20;99.90
21508;DHT22;10915;54.352;9.074;2023-04-23T02:07:33;11.10;99.90
21508;DHT22;10915;54.352;9.074;2023-04-23T02:10:00;11.10;99.90
21508;DHT22;10915;54.352;9.074;2023-04-23T02:12:26;11.10;99.90
21508;DHT22;10915;54.352;9.074;2023-04-23T02:14:52;11.10;99.90
21508;DHT22;10915;54.352;9.074;2023-04-23T02:17:19;11.10;99.90
21508;DHT22;10915;54.352;9.074;2023-04-23T02:19:45;11.10;99.90
21508;DHT22;10915;54.352;9.074;2023-04-23T02:22:11;11.00;99.90
21508;DHT22;10915;54.352;9.074;2023-04-23T02:24:37;11.00;99.90
21508;DHT22;10915;54.352;9.074;2023-04-23T02:27:03;11.00;99.90
21508;DHT22;10915;54.352;9.074;2023-04-23T02:29:29;11.00;99.90
21508;DHT22;10915;54.352;9.074;2023-04-23T02:31:55;11.00;99.90
21508;DHT22;10915;54.352;9.074;2023-04-23T02:34:20;11.00;99.90
21508;DHT22;10915;54.352;9.074;2023-04-23T02:36:46;11.00;99.90
21508;DHT22;10915;54.352;9.074;2023-04-23T02:39:11;11.00;99.90
21508;DHT22;10915;54.352;9.074;2023-04-23T02:41:37;11.00;99.90
21508;DHT22;10915;54.352;9.074;2023-04-23T02:44:02;11.00;99.90
21508;DHT22;10915;54.352;9.074;2023-04-23T02:46:28;11.00;99.90
21508;DHT22;10915;54.352;9.074;2023-04-23T02:48:54;11.00;99.90
21508;DHT22;10915;54.352;9.074;2023-04-23T02:51:19;11.00;99.90
21508;DHT22;10915;54.352;9.074;2023-04-23T02:53:45;11.00;99.90
21508;DHT22;10915;54.352;9.074;2023-04-23T02:56:11;10.90;99.90
21508;DHT22;10915;54.352;9.074;2023-04-23T02:58:36;10.90;99.90
21508;DHT22;10915;54.352;9.074;2023-04-23T03:01:03;10.90;99.90
21508;DHT22;10915;54.352;9.074;2023-04-23T03:03:29;10.90;99.90
21508;DHT22;10915;54.352;9.074;2023-04-23T03:05:56;10.90;99.90
21508;DHT22;10915;54.352;9.074;2023-04-23T03:08:22;10.80;99.90
21508;DHT22;10915;54.352;9.074;2023-04-23T03:10:47;10.80;99.90
21508;DHT22;10915;54.352;9.074;2023-04-23T03:13:13;10.80;99.90
21508;DHT22;10915;54.352;9.074;2023-04-23T03:15:39;10.80;99.90
21508;DHT22;10915;54.352;9.074;2023-04-23T03:18:05;10.70;99.90
21508;DHT22;10915;54.352;9.074;2023-04-23T03:20:33;10.70;99.90
21508;DHT22;10915;54.352;9.074;2023-04-23T03:22:58;10.70;99.90
21508;DHT22;10915;54.352;9.074;2023-04-23T03:25:24;10.70;99.90
21508;DHT22;10915;54.352;9.074;2023-04-23T03:27:51;10.60;99.90
21508;DHT22;10915;54.352;9.074;2023-04-23T03:30:16;10.60;99.90
21508;DHT22;10915;54.352;9.074;2023-04-23T03:32:42;10.60;99.90
21508;DHT22;10915;54.352;9.074;2023-04-23T03:35:08;10.50;99.90
21508;DHT22;10915;54.352;9.074;2023-04-23T03:37:34;10.50;99.90
21508;DHT22;10915;54.352;9.074;2023-04-23T03:40:00;10.50;99.90
21508;DHT22;10915;54.352;9.074;2023-04-23T03:42:32;10.50;99.90
21508;DHT22;10915;54.352;9.074;2023-04-23T03:44:58;10.40;99.90
21508;DHT22;10915;54.352;9.074;2023-04-23T03:47:24;10.40;99.90
21508;DHT22;10915;54.352;9.074;2023-04-23T03:49:50;10.40;99.90
21508;DHT22;10915;54.352;9.074;2023-04-23T03:52:15;10.40;99.90
21508;DHT22;10915;54.352;9.074;2023-04-23T03:54:41;10.40;99.90
21508;DHT22;10915;54.352;9.074;2023-04-23T03:57:08;10.30;99.90
21508;DHT22;10915;54.352;9.074;2023-04-23T03:59:33;10.30;99.90
21508;DHT22;10915;54.352;9.074;2023-04-23T04:02:00;10.30;99.90
21508;DHT22;10915;54.352;9.074;2023-04-23T04:04:28;10.30;99.90
21508;DHT22;10915;54.352;9.074;2023-04-23T04:06:55;10.20;99.90
21508;DHT22;10915;54.352;9.074;2023-04-23T04:09:20;10.20;99.90
21508;DHT22;10915;54.352;9.074;2023-04-23T04:11:46;10.20;99.90
21508;DHT22;10915;54.352;9.074;2023-04-23T04:14:13;10.10;99.90
21508;DHT22;10915;54.352;9.074;2023-04-23T04:16:39;10.10;99.90
21508;DHT22;10915;54.352;9.074;2023-04-23T04:19:06;10.10;99.90
21508;DHT22;10915;54.352;9.074;2023-04-23T04:21:31;10.10;99.90
21508;DHT22;10915;54.352;9.074;2023-04-23T04:23:58;10.00;99.90
21508;DHT22;10915;54.352;9.074;2023-04-23T04:26:26;10.00;99.90
21508;DHT22;10915;54.352;9.074;2023-04-23T04:28:52;10.00;99.90
21508;DHT22;10915;54.352;9.074;2023-04-23T04:31:18;10.00;99.90
21508;DHT22;10915;54.352;9.074;2023-04-23T04:33:46;9.90;99.90
21508;DHT22;10915;54.352;9.074;2023-04-23T04:36:12;9.90;99.90
21508;DHT22;10915;54.352;9.074;2023-04-23T04:38:38;9.90;99.90
21508;DHT22;10915;54.352;9.074;2023-04-23T04:41:04;9.90;99.90
21508;DHT22;10915;54.352;9.074;2023-04-23T04:43:30;9.90;99.90
21508;DHT22;10915;54.352;9.074;2023-04-23T04:45:57;9.90;99.90
21508;DHT22;10915;54.352;9.074;2023-04-23T04:48:23;9.90;99.90
21508;DHT22;10915;54.352;9.074;2023-04-23T04:50:49;9.90;99.90
21508;DHT22;10915;54.352;9.074;2023-04-23T04:53:15;9.90;99.90
21508;DHT22;10915;54.352;9.074;2023-04-23T04:55:41;10.00;99.90
21508;DHT22;10915;54.352;9.074;2023-04-23T04:58:06;10.00;99.90
21508;DHT22;10915;54.352;9.074;2023-04-23T05:00:32;10.10;99.90
21508;DHT22;10915;54.352;9.074;2023-04-23T05:02:58;10.10;99.90
21508;DHT22;10915;54.352;9.074;2023-04-23T05:05:26;10.10;99.90
21508;DHT22;10915;54.352;9.074;2023-04-23T05:07:52;10.20;99.90
21508;DHT22;10915;54.352;9.074;2023-04-23T05:10:23;10.20;99.90
21508;DHT22;10915;54.352;9.074;2023-04-23T05:12:50;10.30;99.90
21508;DHT22;10915;54.352;9.074;2023-04-23T05:15:16;10.30;99.90
21508;DHT22;10915;54.352;9.074;2023-04-23T05:17:42;10.50;99.90
21508;DHT22;10915;54.352;9.074;2023-04-23T05:20:08;10.60;99.90
21508;DHT22;10915;54.352;9.074;2023-04-23T05:22:41;10.80;99.90
21508;DHT22;10915;54.352;9.074;2023-04-23T05:25:07;10.90;99.90
21508;DHT22;10915;54.352;9.074;2023-04-23T05:27:34;10.90;99.90
21508;DHT22;10915;54.352;9.074;2023-04-23T05:30:01;10.80;99.90
21508;DHT22;10915;54.352;9.074;2023-04-23T05:32:27;10.80;99.90
21508;DHT22;10915;54.352;9.074;2023-04-23T05:34:52;10.80;99.90
21508;DHT22;10915;54.352;9.074;2023-04-23T05:37:18;10.80;99.90
21508;DHT22;10915;54.352;9.074;2023-04-23T05:39:43;10.80;99.90
21508;DHT22;10915;54.352;9.074;2023-04-23T05:42:10;10.80;99.90
21508;DHT22;10915;54.352;9.074;2023-04-23T05:44:35;10.90;99.90
21508;DHT22;10915;54.352;9.074;2023-04-23T05:47:01;11.00;99.90
21508;DHT22;10915;54.352;9.074;2023-04-23T05:49:26;11.00;99.90
21508;DHT22;10915;54.352;9.074;2023-04-23T05:51:52;11.20;99.90
21508;DHT22;10915;54.352;9.074;2023-04-23T05:54:18;11.50;99.90
21508;DHT22;10915;54.352;9.074;2023-04-23T05:56:43;11.80;99.90
21508;DHT22;10915;54.352;9.074;2023-04-23T05:59:10;12.00;99.90
21508;DHT22;10915;54.352;9.074;2023-04-23T06:01:36;12.30;99.90
21508;DHT22;10915;54.352;9.074;2023-04-23T06:04:02;12.60;99.90
21508;DHT22;10915;54.352;9.074;2023-04-23T06:06:27;12.70;99.90
21508;DHT22;10915;54.352;9.074;2023-04-23T06:08:53;12.70;99.90
21508;DHT22;10915;54.352;9.074;2023-04-23T06:11:19;12.70;99.90
21508;DHT22;10915;54.352;9.074;2023-04-23T06:13:46;12.70;99.90
21508;DHT22;10915;54.352;9.074;2023-04-23T06:16:11;12.70;99.90
21508;DHT22;10915;54.352;9.074;2023-04-23T06:18:37;12.70;99.90
21508;DHT22;10915;54.352;9.074;2023-04-23T06:21:03;12.60;99.90
21508;DHT22;10915;54.352;9.074;2023-04-23T06:23:30;12.60;99.90
21508;DHT22;10915;54.352;9.074;2023-04-23T06:25:56;12.50;99.90
21508;DHT22;10915;54.352;9.074;2023-04-23T06:28:22;12.50;99.90
21508;DHT22;10915;54.352;9.074;2023-04-23T06:30:47;12.30;99.90
21508;DHT22;10915;54.352;9.074;2023-04-23T06:33:13;12.30;99.90
21508;DHT22;10915;54.352;9.074;2023-04-23T06:35:38;12.30;99.90
21508;DHT22;10915;54.352;9.074;2023-04-23T06:38:04;12.30;99.90
21508;DHT22;10915;54.352;9.074;2023-04-23T06:40:31;12.40;99.90
21508;DHT22;10915;54.352;9.074;2023-04-23T06:42:57;12.50;99.90
21508;DHT22;10915;54.352;9.074;2023-04-23T06:45:22;12.70;99.90
21508;DHT22;10915;54.352;9.074;2023-04-23T06:47:48;12.80;99.90
21508;DHT22;10915;54.352;9.074;2023-04-23T06:50:14;12.90;99.90
21508;DHT22;10915;54.352;9.074;2023-04-23T06:52:40;13.00;99.90
21508;DHT22;10915;54.352;9.074;2023-04-23T06:55:06;13.00;99.90
21508;DHT22;10915;54.352;9.074;2023-04-23T06:57:32;12.90;99.90
21508;DHT22;10915;54.352;9.074;2023-04-23T06:59:58;13.20;99.90
21508;DHT22;10915;54.352;9.074;2023-04-23T07:02:23;13.40;99.90
21508;DHT22;10915;54.352;9.074;2023-04-23T07:04:49;13.40;99.90
21508;DHT22;10915;54.352;9.074;2023-04-23T07:07:14;13.50;99.90
21508;DHT22;10915;54.352;9.074;2023-04-23T07:09:40;13.40;99.90
21508;DHT22;10915;54.352;9.074;2023-04-23T07:12:06;13.40;99.90
21508;DHT22;10915;54.352;9.074;2023-04-23T07:14:32;13.50;99.90
21508;DHT22;10915;54.352;9.074;2023-04-23T07:16:57;13.50;99.90
21508;DHT22;10915;54.352;9.074;2023-04-23T07:19:23;13.50;99.90
21508;DHT22;10915;54.352;9.074;2023-04-23T07:21:49;13.60;99.90
21508;DHT22;10915;54.352;9.074;2023-04-23T07:24:15;13.70;99.90
21508;DHT22;10915;54.352;9.074;2023-04-23T07:26:41;13.80;99.90
21508;DHT22;10915;54.352;9.074;2023-04-23T07:29:07;14.00;99.90
21508;DHT22;10915;54.352;9.074;2023-04-23T07:31:35;14.20;99.90
21508;DHT22;10915;54.352;9.074;2023-04-23T07:34:01;14.30;99.90
21508;DHT22;10915;54.352;9.074;2023-04-23T07:36:27;14.40;99.90
21508;DHT22;10915;54.352;9.074;2023-04-23T07:38:53;14.40;99.90
21508;DHT22;10915;54.352;9.074;2023-04-23T07:41:19;14.40;99.90
21508;DHT22;10915;54.352;9.074;2023-04-23T07:43:44;14.50;99.90
21508;DHT22;10915;54.352;9.074;2023-04-23T07:46:10;14.50;99.90
21508;DHT22;10915;54.352;9.074;2023-04-23T07:48:36;14.60;99.90
21508;DHT22;10915;54.352;9.074;2023-04-23T07:51:02;14.50;99.90
21508;DHT22;10915;54.352;9.074;2023-04-23T07:53:27;14.50;99.90
21508;DHT22;10915;54.352;9.074;2023-04-23T07:55:54;14.30;99.90
21508;DHT22;10915;54.352;9.074;2023-04-23T07:58:21;14.30;99.90
21508;DHT22;10915;54.352;9.074;2023-04-23T08:00:47;14.30;99.90
21508;DHT22;10915;54.352;9.074;2023-04-23T08:03:12;14.30;99.90
21508;DHT22;10915;54.352;9.074;2023-04-23T08:05:38;14.30;99.90
21508;DHT22;10915;54.352;9.074;2023-04-23T08:08:05;14.40;99.90
21508;DHT22;10915;54.352;9.074;2023-04-23T08:10:31;14.60;99.90
21508;DHT22;10915;54.352;9.074;2023-04-23T08:12:57;14.70;99.90
21508;DHT22;10915;54.352;9.074;2023-04-23T08:15:23;14.90;99.90
21508;DHT22;10915;54.352;9.074;2023-04-23T08:17:48;15.20;99.90
21508;DHT22;10915;54.352;9.074;2023-04-23T08:20:14;15.40;99.90
21508;DHT22;10915;54.352;9.074;2023-04-23T08:22:39;15.70;99.90
21508;DHT22;10915;54.352;9.074;2023-04-23T08:25:05;15.80;99.90
21508;DHT22;10915;54.352;9.074;2023-04-23T08:27:31;15.90;99.90
21508;DHT22;10915;54.352;9.074;2023-04-23T08:29:56;16.00;99.90
21508;DHT22;10915;54.352;9.074;2023-04-23T08:32:22;16.00;99.90
21508;DHT22;10915;54.352;9.074;2023-04-23T08:34:48;16.10;99.90
21508;DHT22;10915;54.352;9.074;2023-04-23T08:37:14;16.20;99.90
21508;DHT22;10915;54.352;9.074;2023-04-23T08:39:39;16.20;99.90
21508;DHT22;10915;54.352;9.074;2023-04-23T08:45:02;16.40;99.90
21508;DHT22;10915;54.352;9.074;2023-04-23T08:47:29;16.40;99.90
21508;DHT22;10915;54.352;9.074;2023-04-23T08:49:58;16.30;99.90
21508;DHT22;10915;54.352;9.074;2023-04-23T08:52:25;16.40;99.90
21508;DHT22;10915;54.352;9.074;2023-04-23T08:54:55;16.40;99.90
21508;DHT22;10915;54.352;9.074;2023-04-23T08:57:23;16.50;99.90
21508;DHT22;10915;54.352;9.074;2023-04-23T08:59:49;16.30;99.90
21508;DHT22;10915;54.352;9.074;2023-04-23T09:02:16;16.40;99.90
21508;DHT22;10915;54.352;9.074;2023-04-23T09:04:43;16.60;99.90
21508;DHT22;10915;54.352;9.074;2023-04-23T09:07:09;17.10;99.90
21508;DHT22;10915;54.352;9.074;2023-04-23T09:09:38;17.50;99.90
21508;DHT22;10915;54.352;9.074;2023-04-23T09:12:06;18.40;99.90
21508;DHT22;10915;54.352;9.074;2023-04-23T09:14:35;19.20;99.90
21508;DHT22;10915;54.352;9.074;2023-04-23T09:17:01;19.90;99.90
21508;DHT22;10915;54.352;9.074;2023-04-23T09:19:27;20.50;99.90
21508;DHT22;10915;54.352;9.074;2023-04-23T09:21:53;21.40;99.90
21508;DHT22;10915;54.352;9.074;2023-04-23T09:24:23;22.10;99.90
21508;DHT22;10915;54.352;9.074;2023-04-23T09:26:50;22.70;99.90
21508;DHT22;10915;54.352;9.074;2023-04-23T09:29:18;23.40;99.90
21508;DHT22;10915;54.352;9.074;2023-04-23T09:31:45;24.00;99.90
21508;DHT22;10915;54.352;9.074;2023-04-23T09:34:20;24.40;99.90
21508;DHT22;10915;54.352;9.074;2023-04-23T09:36:48;24.60;99.90
21508;DHT22;10915;54.352;9.074;2023-04-23T09:39:21;24.80;99.90
21508;DHT22;10915;54.352;9.074;2023-04-23T09:41:47;24.70;99.90
21508;DHT22;10915;54.352;9.074;2023-04-23T09:44:20;24.80;99.90
21508;DHT22;10915;54.352;9.074;2023-04-23T09:46:49;25.00;99.90
21508;DHT22;10915;54.352;9.074;2023-04-23T09:49:15;25.30;99.90
21508;DHT22;10915;54.352;9.074;2023-04-23T09:54:14;24.70;99.90
21508;DHT22;10915;54.352;9.074;2023-04-23T09:56:43;24.30;99.90
21508;DHT22;10915;54.352;9.074;2023-04-23T09:59:26;24.20;99.90
21508;DHT22;10915;54.352;9.074;2023-04-23T10:01:53;23.50;99.90
21508;DHT22;10915;54.352;9.074;2023-04-23T10:04:23;23.10;99.90
21508;DHT22;10915;54.352;9.074;2023-04-23T10:07:03;23.20;99.90
21508;DHT22;10915;54.352;9.074;2023-04-23T10:09:30;23.20;99.90
21508;DHT22;10915;54.352;9.074;2023-04-23T10:11:58;22.50;99.90
21508;DHT22;10915;54.352;9.074;2023-04-23T10:14:25;22.30;99.90
21508;DHT22;10915;54.352;9.074;2023-04-23T10:16:59;22.00;99.90
21508;DHT22;10915;54.352;9.074;2023-04-23T10:19:25;21.70;99.90
21508;DHT22;10915;54.352;9.074;2023-04-23T10:21:55;21.60;99.90
21508;DHT22;10915;54.352;9.074;2023-04-23T10:24:25;21.40;99.90
21508;DHT22;10915;54.352;9.074;2023-04-23T10:26:59;21.40;99.90
21508;DHT22;10915;54.352;9.074;2023-04-23T10:29:30;21.30;99.90
21508;DHT22;10915;54.352;9.074;2023-04-23T10:32:01;21.10;99.90
21508;DHT22;10915;54.352;9.074;2023-04-23T10:34:29;21.20;99.90
21508;DHT22;10915;54.352;9.074;2023-04-23T10:36:56;21.20;99.90
21508;DHT22;10915;54.352;9.074;2023-04-23T10:39:26;21.00;99.90
21508;DHT22;10915;54.352;9.074;2023-04-23T10:41:53;21.00;99.90
21508;DHT22;10915;54.352;9.074;2023-04-23T10:44:19;20.80;99.90
21508;DHT22;10915;54.352;9.074;2023-04-23T10:46:56;20.90;99.90
21508;DHT22;10915;54.352;9.074;2023-04-23T10:49:23;21.10;99.90
21508;DHT22;10915;54.352;9.074;2023-04-23T10:51:57;21.40;99.90
21508;DHT22;10915;54.352;9.074;2023-04-23T10:54:28;21.90;99.90
21508;DHT22;10915;54.352;9.074;2023-04-23T10:57:01;22.30;99.90
21508;DHT22;10915;54.352;9.074;2023-04-23T10:59:28;22.60;99.90
21508;DHT22;10915;54.352;9.074;2023-04-23T11:01:56;22.50;99.90
21508;DHT22;10915;54.352;9.074;2023-04-23T11:04:26;22.50;99.90
21508;DHT22;10915;54.352;9.074;2023-04-23T11:07:06;22.40;99.90
21508;DHT22;10915;54.352;9.074;2023-04-23T11:09:38;22.50;99.90
21508;DHT22;10915;54.352;9.074;2023-04-23T11:12:12;22.30;99.90
21508;DHT22;10915;54.352;9.074;2023-04-23T11:14:44;21.90;99.90
21508;DHT22;10915;54.352;9.074;2023-04-23T11:17:14;21.90;99.90
21508;DHT22;10915;54.352;9.074;2023-04-23T11:19:41;21.50;99.90
21508;DHT22;10915;54.352;9.074;2023-04-23T11:22:33;21.30;99.90
21508;DHT22;10915;54.352;9.074;2023-04-23T11:25:00;21.50;99.90
21508;DHT22;10915;54.352;9.074;2023-04-23T11:27:29;21.60;99.90
21508;DHT22;10915;54.352;9.074;2023-04-23T11:29:56;21.70;99.90
21508;DHT22;10915;54.352;9.074;2023-04-23T11:32:22;21.50;99.90
21508;DHT22;10915;54.352;9.074;2023-04-23T11:34:49;21.40;99.90
21508;DHT22;10915;54.352;9.074;2023-04-23T11:37:16;20.90;99.90
21508;DHT22;10915;54.352;9.074;2023-04-23T11:39:44;20.70;99.90
21508;DHT22;10915;54.352;9.074;2023-04-23T11:42:14;20.70;99.90
21508;DHT22;10915;54.352;9.074;2023-04-23T11:44:41;20.60;99.90
21508;DHT22;10915;54.352;9.074;2023-04-23T11:47:08;20.60;99.90
21508;DHT22;10915;54.352;9.074;2023-04-23T11:49:38;20.70;99.90
21508;DHT22;10915;54.352;9.074;2023-04-23T11:52:05;20.90;99.90
21508;DHT22;10915;54.352;9.074;2023-04-23T11:54:30;20.80;99.90
21508;DHT22;10915;54.352;9.074;2023-04-23T11:56:56;20.70;99.90
21508;DHT22;10915;54.352;9.074;2023-04-23T11:59:26;20.50;99.90
21508;DHT22;10915;54.352;9.074;2023-04-23T12:01:54;20.40;99.90
21508;DHT22;10915;54.352;9.074;2023-04-23T12:04:22;20.30;99.90
21508;DHT22;10915;54.352;9.074;2023-04-23T12:06:49;20.00;99.90
21508;DHT22;10915;54.352;9.074;2023-04-23T12:09:16;19.70;99.90
21508;DHT22;10915;54.352;9.074;2023-04-23T12:11:43;19.60;99.90
21508;DHT22;10915;54.352;9.074;2023-04-23T12:14:10;19.70;99.90
21508;DHT22;10915;54.352;9.074;2023-04-23T12:16:41;19.70;99.90
21508;DHT22;10915;54.352;9.074;2023-04-23T12:19:14;19.70;99.90
21508;DHT22;10915;54.352;9.074;2023-04-23T12:21:47;20.20;99.90
21508;DHT22;10915;54.352;9.074;2023-04-23T12:24:14;20.50;99.90
21508;DHT22;10915;54.352;9.074;2023-04-23T12:26:40;20.60;99.90
21508;DHT22;10915;54.352;9.074;2023-04-23T12:29:07;20.70;99.90
21508;DHT22;10915;54.352;9.074;2023-04-23T12:31:32;20.80;99.90
21508;DHT22;10915;54.352;9.074;2023-04-23T12:34:02;20.70;99.90
21508;DHT22;10915;54.352;9.074;2023-04-23T12:36:29;20.60;99.90
21508;DHT22;10915;54.352;9.074;2023-04-23T12:41:44;21.00;99.90
21508;DHT22;10915;54.352;9.074;2023-04-23T12:44:10;21.30;99.90
21508;DHT22;10915;54.352;9.074;2023-04-23T12:46:35;21.40;99.90
21508;DHT22;10915;54.352;9.074;2023-04-23T12:49:01;21.40;99.90
21508;DHT22;10915;54.352;9.074;2023-04-23T12:51:27;21.30;99.90
21508;DHT22;10915;54.352;9.074;2023-04-23T12:53:52;21.30;99.90
21508;DHT22;10915;54.352;9.074;2023-04-23T12:56:19;21.30;99.90
21508;DHT22;10915;54.352;9.074;2023-04-23T12:58:45;21.30;99.90
21508;DHT22;10915;54.352;9.074;2023-04-23T13:01:10;21.40;99.90
21508;DHT22;10915;54.352;9.074;2023-04-23T13:03:38;21.40;99.90
21508;DHT22;10915;54.352;9.074;2023-04-23T13:06:04;21.50;99.90
21508;DHT22;10915;54.352;9.074;2023-04-23T13:08:32;21.40;99.90
21508;DHT22;10915;54.352;9.074;2023-04-23T13:10:58;21.50;99.90
21508;DHT22;10915;54.352;9.074;2023-04-23T13:13:25;21.60;99.90
21508;DHT22;10915;54.352;9.074;2023-04-23T13:15:51;21.70;99.90
21508;DHT22;10915;54.352;9.074;2023-04-23T13:18:18;21.70;99.90
21508;DHT22;10915;54.352;9.074;2023-04-23T13:20:43;21.70;99.90
21508;DHT22;10915;54.352;9.074;2023-04-23T13:23:09;21.40;99.90
21508;DHT22;10915;54.352;9.074;2023-04-23T13:25:36;21.20;99.90
21508;DHT22;10915;54.352;9.074;2023-04-23T13:28:02;21.20;99.90
21508;DHT22;10915;54.352;9.074;2023-04-23T13:30:31;21.20;99.90
21508;DHT22;10915;54.352;9.074;2023-04-23T13:33:00;21.20;99.90
21508;DHT22;10915;54.352;9.074;2023-04-23T13:35:25;21.30;99.90
21508;DHT22;10915;54.352;9.074;2023-04-23T13:37:51;21.40;99.90
21508;DHT22;10915;54.352;9.074;2023-04-23T13:40:16;21.50;99.90
21508;DHT22;10915;54.352;9.074;2023-04-23T13:42:43;21.60;99.90
21508;DHT22;10915;54.352;9.074;2023-04-23T13:45:09;21.60;99.90
21508;DHT22;10915;54.352;9.074;2023-04-23T13:47:35;21.40;99.90
21508;DHT22;10915;54.352;9.074;2023-04-23T13:50:01;21.30;99.90
21508;DHT22;10915;54.352;9.074;2023-04-23T13:52:29;21.10;99.90
21508;DHT22;10915;54.352;9.074;2023-04-23T13:54:56;21.20;99.90
21508;DHT22;10915;54.352;9.074;2023-04-23T13:57:22;21.30;99.90
21508;DHT22;10915;54.352;9.074;2023-04-23T13:59:48;21.30;99.90
21508;DHT22;10915;54.352;9.074;2023-04-23T14:02:14;21.20;99.90
21508;DHT22;10915;54.352;9.074;2023-04-23T14:04:40;21.10;99.90
21508;DHT22;10915;54.352;9.074;2023-04-23T14:07:05;21.20;99.90
21508;DHT22;10915;54.352;9.074;2023-04-23T14:09:31;21.20;99.90
21508;DHT22;10915;54.352;9.074;2023-04-23T14:11:56;21.10;99.90
21508;DHT22;10915;54.352;9.074;2023-04-23T14:14:22;21.00;99.90
21508;DHT22;10915;54.352;9.074;2023-04-23T14:16:48;20.90;99.90
21508;DHT22;10915;54.352;9.074;2023-04-23T14:19:13;20.90;99.90
21508;DHT22;10915;54.352;9.074;2023-04-23T14:21:39;20.90;99.90
21508;DHT22;10915;54.352;9.074;2023-04-23T14:24:17;21.10;99.90
21508;DHT22;10915;54.352;9.074;2023-04-23T14:26:43;21.10;99.90
21508;DHT22;10915;54.352;9.074;2023-04-23T14:29:23;21.20;99.90
21508;DHT22;10915;54.352;9.074;2023-04-23T14:31:52;21.10;99.90
21508;DHT22;10915;54.352;9.074;2023-04-23T14:34:17;21.10;99.90
21508;DHT22;10915;54.352;9.074;2023-04-23T14:36:43;21.10;99.90
21508;DHT22;10915;54.352;9.074;2023-04-23T14:39:10;21.10;99.90
21508;DHT22;10915;54.352;9.074;2023-04-23T14:41:36;21.10;99.90
21508;DHT22;10915;54.352;9.074;2023-04-23T14:44:04;21.10;99.90
21508;DHT22;10915;54.352;9.074;2023-04-23T14:46:29;21.10;99.90
21508;DHT22;10915;54.352;9.074;2023-04-23T14:48:55;21.10;99.90
21508;DHT22;10915;54.352;9.074;2023-04-23T14:51:21;21.10;99.90
21508;DHT22;10915;54.352;9.074;2023-04-23T14:53:46;20.90;99.90
21508;DHT22;10915;54.352;9.074;2023-04-23T14:56:12;20.80;99.90
21508;DHT22;10915;54.352;9.074;2023-04-23T14:58:38;20.70;99.90
21508;DHT22;10915;54.352;9.074;2023-04-23T15:01:03;20.70;99.90
21508;DHT22;10915;54.352;9.074;2023-04-23T15:03:29;20.70;99.90
21508;DHT22;10915;54.352;9.074;2023-04-23T15:05:55;20.60;99.90
21508;DHT22;10915;54.352;9.074;2023-04-23T15:08:20;20.50;99.90
21508;DHT22;10915;54.352;9.074;2023-04-23T15:10:46;20.40;99.90
21508;DHT22;10915;54.352;9.074;2023-04-23T15:18:30;20.10;99.90
21508;DHT22;10915;54.352;9.074;2023-04-23T15:20:55;20.10;99.90
21508;DHT22;10915;54.352;9.074;2023-04-23T15:23:21;20.20;99.90
21508;DHT22;10915;54.352;9.074;2023-04-23T15:25:49;20.30;99.90
21508;DHT22;10915;54.352;9.074;2023-04-23T15:28:14;20.20;99.90
21508;DHT22;10915;54.352;9.074;2023-04-23T15:30:41;20.30;99.90
21508;DHT22;10915;54.352;9.074;2023-04-23T15:33:09;20.30;99.90
21508;DHT22;10915;54.352;9.074;2023-04-23T15:35:35;20.30;99.90
21508;DHT22;10915;54.352;9.074;2023-04-23T15:38:00;20.30;99.90
21508;DHT22;10915;54.352;9.074;2023-04-23T15:40:26;20.40;99.90